Ellington, Missouri
Current Conditions -  °F | °C
As of 12:55 PM on Wednesday 26 Nov 2014 (Local Time) from KFAM Reporting Station
Overcast Overcast  
Wind Chill: 30°   Ceiling: 300
Heat Index: 34°   Visibility: 0.5mi
Dew Point: 30°   Wind: 5mph
Humidity: 87%   Direction: 140°SE
Pressure: 29.96"   Gusts: NA
Location:  37.24°N, 90.97°W
Report Text: KFAM 261855Z AUTO 14004KT 1/2SM OVC003 01/M01 A2996 RMK AO1 P0002
Loading
Personal Weather Stations






























Interactive Weather Map New forecast layout! Learn more

10-Day Weather Forecast

Advertisements
Track Severe Weather on mobile